sensor_id;sensor_type;location;lat;lon;timestamp;P1;durP1;ratioP1;P2;durP2;ratioP2
46158;SDS011;31888;44.512;26.104;2022-11-15T00:01:53;47.45;;;20.30;;
46158;SDS011;31888;44.512;26.104;2022-11-15T00:04:16;41.35;;;17.38;;
46158;SDS011;31888;44.512;26.104;2022-11-15T00:06:39;39.70;;;17.80;;
46158;SDS011;31888;44.512;26.104;2022-11-15T00:09:02;46.92;;;20.00;;
46158;SDS011;31888;44.512;26.104;2022-11-15T00:11:26;45.70;;;17.80;;
46158;SDS011;31888;44.512;26.104;2022-11-15T00:13:49;41.08;;;18.38;;
46158;SDS011;31888;44.512;26.104;2022-11-15T00:16:12;43.35;;;18.50;;
46158;SDS011;31888;44.512;26.104;2022-11-15T00:18:35;41.83;;;19.42;;
46158;SDS011;31888;44.512;26.104;2022-11-15T00:21:03;47.85;;;20.15;;
46158;SDS011;31888;44.512;26.104;2022-11-15T00:23:27;45.97;;;20.70;;
46158;SDS011;31888;44.512;26.104;2022-11-15T00:25:55;44.05;;;19.85;;
46158;SDS011;31888;44.512;26.104;2022-11-15T00:28:20;39.85;;;18.98;;
46158;SDS011;31888;44.512;26.104;2022-11-15T00:30:42;48.83;;;19.55;;
46158;SDS011;31888;44.512;26.104;2022-11-15T00:33:05;46.15;;;20.08;;
46158;SDS011;31888;44.512;26.104;2022-11-15T00:35:30;44.38;;;18.25;;
46158;SDS011;31888;44.512;26.104;2022-11-15T00:37:54;42.35;;;17.70;;
46158;SDS011;31888;44.512;26.104;2022-11-15T00:40:17;45.90;;;19.67;;
46158;SDS011;31888;44.512;26.104;2022-11-15T00:42:40;47.25;;;19.95;;
46158;SDS011;31888;44.512;26.104;2022-11-15T00:45:05;44.33;;;20.13;;
46158;SDS011;31888;44.512;26.104;2022-11-15T00:47:29;47.33;;;20.13;;
46158;SDS011;31888;44.512;26.104;2022-11-15T00:49:51;42.65;;;20.67;;
46158;SDS011;31888;44.512;26.104;2022-11-15T00:52:14;44.03;;;18.48;;
46158;SDS011;31888;44.512;26.104;2022-11-15T00:54:37;46.40;;;20.80;;
46158;SDS011;31888;44.512;26.104;2022-11-15T00:57:00;50.50;;;20.58;;
46158;SDS011;31888;44.512;26.104;2022-11-15T00:59:23;46.42;;;19.77;;
46158;SDS011;31888;44.512;26.104;2022-11-15T01:01:47;45.83;;;20.67;;
46158;SDS011;31888;44.512;26.104;2022-11-15T01:04:10;51.40;;;19.38;;
46158;SDS011;31888;44.512;26.104;2022-11-15T01:06:32;54.55;;;19.77;;
46158;SDS011;31888;44.512;26.104;2022-11-15T01:08:55;46.53;;;20.27;;
46158;SDS011;31888;44.512;26.104;2022-11-15T01:11:18;46.53;;;20.35;;
46158;SDS011;31888;44.512;26.104;2022-11-15T01:13:41;50.40;;;20.63;;
46158;SDS011;31888;44.512;26.104;2022-11-15T01:16:08;49.88;;;19.85;;
46158;SDS011;31888;44.512;26.104;2022-11-15T01:18:34;47.90;;;20.55;;
46158;SDS011;31888;44.512;26.104;2022-11-15T01:20:57;50.28;;;20.35;;
46158;SDS011;31888;44.512;26.104;2022-11-15T01:23:20;49.58;;;19.00;;
46158;SDS011;31888;44.512;26.104;2022-11-15T01:25:42;44.15;;;19.52;;
46158;SDS011;31888;44.512;26.104;2022-11-15T01:28:05;45.33;;;18.35;;
46158;SDS011;31888;44.512;26.104;2022-11-15T01:30:28;45.88;;;19.73;;
46158;SDS011;31888;44.512;26.104;2022-11-15T01:32:50;48.08;;;20.45;;
46158;SDS011;31888;44.512;26.104;2022-11-15T01:35:15;54.88;;;22.48;;
46158;SDS011;31888;44.512;26.104;2022-11-15T01:37:38;50.97;;;20.15;;
46158;SDS011;31888;44.512;26.104;2022-11-15T01:40:01;42.78;;;18.10;;
46158;SDS011;31888;44.512;26.104;2022-11-15T01:42:24;47.33;;;18.45;;
46158;SDS011;31888;44.512;26.104;2022-11-15T01:44:47;46.95;;;20.23;;
46158;SDS011;31888;44.512;26.104;2022-11-15T01:47:12;47.28;;;19.92;;
46158;SDS011;31888;44.512;26.104;2022-11-15T01:49:38;46.28;;;18.88;;
46158;SDS011;31888;44.512;26.104;2022-11-15T01:52:06;46.85;;;19.67;;
46158;SDS011;31888;44.512;26.104;2022-11-15T01:54:32;42.33;;;19.17;;
46158;SDS011;31888;44.512;26.104;2022-11-15T01:56:55;46.13;;;19.38;;
46158;SDS011;31888;44.512;26.104;2022-11-15T01:59:23;49.25;;;20.40;;
46158;SDS011;31888;44.512;26.104;2022-11-15T02:01:46;51.78;;;21.63;;
46158;SDS011;31888;44.512;26.104;2022-11-15T02:04:10;57.75;;;21.67;;
46158;SDS011;31888;44.512;26.104;2022-11-15T02:06:35;54.88;;;21.67;;
46158;SDS011;31888;44.512;26.104;2022-11-15T02:09:00;54.65;;;21.98;;
46158;SDS011;31888;44.512;26.104;2022-11-15T02:11:24;53.70;;;22.02;;
46158;SDS011;31888;44.512;26.104;2022-11-15T02:13:47;50.95;;;22.30;;
46158;SDS011;31888;44.512;26.104;2022-11-15T02:16:31;58.03;;;22.15;;
46158;SDS011;31888;44.512;26.104;2022-11-15T02:19:02;54.58;;;21.50;;
46158;SDS011;31888;44.512;26.104;2022-11-15T02:21:45;56.97;;;21.70;;
46158;SDS011;31888;44.512;26.104;2022-11-15T02:24:35;52.38;;;22.10;;
46158;SDS011;31888;44.512;26.104;2022-11-15T02:30:02;53.97;;;19.90;;
46158;SDS011;31888;44.512;26.104;2022-11-15T02:32:44;54.85;;;20.02;;
46158;SDS011;31888;44.512;26.104;2022-11-15T02:35:11;49.58;;;20.88;;
46158;SDS011;31888;44.512;26.104;2022-11-15T02:37:42;52.25;;;23.15;;
46158;SDS011;31888;44.512;26.104;2022-11-15T02:40:10;57.97;;;21.88;;
46158;SDS011;31888;44.512;26.104;2022-11-15T02:42:40;61.70;;;22.63;;
46158;SDS011;31888;44.512;26.104;2022-11-15T02:45:30;54.60;;;22.40;;
46158;SDS011;31888;44.512;26.104;2022-11-15T02:47:54;59.75;;;24.45;;
46158;SDS011;31888;44.512;26.104;2022-11-15T02:50:21;59.53;;;24.55;;
46158;SDS011;31888;44.512;26.104;2022-11-15T02:52:48;60.53;;;25.98;;
46158;SDS011;31888;44.512;26.104;2022-11-15T02:55:24;58.42;;;25.70;;
46158;SDS011;31888;44.512;26.104;2022-11-15T02:57:51;56.90;;;23.67;;
46158;SDS011;31888;44.512;26.104;2022-11-15T03:00:21;63.50;;;24.40;;
46158;SDS011;31888;44.512;26.104;2022-11-15T03:05:31;62.33;;;24.85;;
46158;SDS011;31888;44.512;26.104;2022-11-15T03:08:00;62.40;;;25.15;;
46158;SDS011;31888;44.512;26.104;2022-11-15T03:10:31;61.17;;;24.55;;
46158;SDS011;31888;44.512;26.104;2022-11-15T03:13:04;56.70;;;23.25;;
46158;SDS011;31888;44.512;26.104;2022-11-15T03:15:41;58.03;;;23.80;;
46158;SDS011;31888;44.512;26.104;2022-11-15T03:18:12;60.72;;;23.92;;
46158;SDS011;31888;44.512;26.104;2022-11-15T03:20:42;55.97;;;23.38;;
46158;SDS011;31888;44.512;26.104;2022-11-15T03:23:06;55.17;;;23.48;;
46158;SDS011;31888;44.512;26.104;2022-11-15T03:25:30;56.13;;;23.83;;
46158;SDS011;31888;44.512;26.104;2022-11-15T03:27:55;58.33;;;23.13;;
46158;SDS011;31888;44.512;26.104;2022-11-15T03:30:21;56.83;;;23.52;;
46158;SDS011;31888;44.512;26.104;2022-11-15T03:32:44;54.03;;;23.33;;
46158;SDS011;31888;44.512;26.104;2022-11-15T03:35:13;52.17;;;22.88;;
46158;SDS011;31888;44.512;26.104;2022-11-15T03:37:40;55.92;;;24.30;;
46158;SDS011;31888;44.512;26.104;2022-11-15T03:40:07;52.00;;;21.70;;
46158;SDS011;31888;44.512;26.104;2022-11-15T03:42:31;49.65;;;20.15;;
46158;SDS011;31888;44.512;26.104;2022-11-15T03:45:02;50.97;;;21.65;;
46158;SDS011;31888;44.512;26.104;2022-11-15T03:47:31;47.03;;;19.17;;
46158;SDS011;31888;44.512;26.104;2022-11-15T03:49:57;49.22;;;20.80;;
46158;SDS011;31888;44.512;26.104;2022-11-15T03:52:24;53.50;;;20.42;;
46158;SDS011;31888;44.512;26.104;2022-11-15T03:54:48;48.45;;;20.33;;
46158;SDS011;31888;44.512;26.104;2022-11-15T03:57:15;49.60;;;20.27;;
46158;SDS011;31888;44.512;26.104;2022-11-15T03:59:38;51.08;;;21.42;;
46158;SDS011;31888;44.512;26.104;2022-11-15T04:02:00;54.25;;;22.35;;
46158;SDS011;31888;44.512;26.104;2022-11-15T04:04:23;53.67;;;22.75;;
46158;SDS011;31888;44.512;26.104;2022-11-15T04:06:46;55.45;;;24.02;;
46158;SDS011;31888;44.512;26.104;2022-11-15T04:09:10;55.40;;;23.35;;
46158;SDS011;31888;44.512;26.104;2022-11-15T04:11:33;64.47;;;28.02;;
46158;SDS011;31888;44.512;26.104;2022-11-15T04:13:56;65.28;;;27.30;;
46158;SDS011;31888;44.512;26.104;2022-11-15T04:16:18;58.65;;;25.70;;
46158;SDS011;31888;44.512;26.104;2022-11-15T04:18:41;73.93;;;28.98;;
46158;SDS011;31888;44.512;26.104;2022-11-15T04:21:03;65.50;;;28.02;;
46158;SDS011;31888;44.512;26.104;2022-11-15T04:23:44;85.57;;;37.15;;
46158;SDS011;31888;44.512;26.104;2022-11-15T04:26:26;76.93;;;33.35;;
46158;SDS011;31888;44.512;26.104;2022-11-15T04:28:49;79.20;;;31.70;;
46158;SDS011;31888;44.512;26.104;2022-11-15T04:33:52;65.82;;;26.77;;
46158;SDS011;31888;44.512;26.104;2022-11-15T04:36:15;66.10;;;28.38;;
46158;SDS011;31888;44.512;26.104;2022-11-15T04:38:55;66.43;;;25.95;;
46158;SDS011;31888;44.512;26.104;2022-11-15T04:41:18;65.60;;;26.45;;
46158;SDS011;31888;44.512;26.104;2022-11-15T04:43:42;66.97;;;27.52;;
46158;SDS011;31888;44.512;26.104;2022-11-15T04:46:04;61.10;;;26.67;;
46158;SDS011;31888;44.512;26.104;2022-11-15T04:48:27;64.03;;;26.30;;
46158;SDS011;31888;44.512;26.104;2022-11-15T04:50:50;63.25;;;27.35;;
46158;SDS011;31888;44.512;26.104;2022-11-15T04:53:12;62.28;;;26.60;;
46158;SDS011;31888;44.512;26.104;2022-11-15T04:55:35;60.75;;;25.38;;
46158;SDS011;31888;44.512;26.104;2022-11-15T04:57:58;63.10;;;26.75;;
46158;SDS011;31888;44.512;26.104;2022-11-15T05:00:23;62.38;;;26.15;;
46158;SDS011;31888;44.512;26.104;2022-11-15T05:02:46;59.03;;;25.08;;
46158;SDS011;31888;44.512;26.104;2022-11-15T05:05:27;67.40;;;25.90;;
46158;SDS011;31888;44.512;26.104;2022-11-15T05:07:49;64.72;;;27.60;;
46158;SDS011;31888;44.512;26.104;2022-11-15T05:10:12;58.65;;;25.52;;
46158;SDS011;31888;44.512;26.104;2022-11-15T05:12:35;69.88;;;25.60;;
46158;SDS011;31888;44.512;26.104;2022-11-15T05:14:57;67.57;;;28.45;;
46158;SDS011;31888;44.512;26.104;2022-11-15T05:17:21;66.28;;;27.92;;
46158;SDS011;31888;44.512;26.104;2022-11-15T05:19:44;66.50;;;27.50;;
46158;SDS011;31888;44.512;26.104;2022-11-15T05:22:07;58.70;;;25.75;;
46158;SDS011;31888;44.512;26.104;2022-11-15T05:24:30;67.30;;;27.00;;
46158;SDS011;31888;44.512;26.104;2022-11-15T05:26:53;66.65;;;26.95;;
46158;SDS011;31888;44.512;26.104;2022-11-15T05:29:15;68.03;;;27.88;;
46158;SDS011;31888;44.512;26.104;2022-11-15T05:31:39;64.13;;;28.38;;
46158;SDS011;31888;44.512;26.104;2022-11-15T05:34:04;67.57;;;27.52;;
46158;SDS011;31888;44.512;26.104;2022-11-15T05:36:29;60.28;;;26.33;;
46158;SDS011;31888;44.512;26.104;2022-11-15T05:38:55;68.28;;;27.33;;
46158;SDS011;31888;44.512;26.104;2022-11-15T05:41:19;60.13;;;26.20;;
46158;SDS011;31888;44.512;26.104;2022-11-15T05:43:46;66.13;;;27.50;;
46158;SDS011;31888;44.512;26.104;2022-11-15T05:46:11;67.65;;;28.17;;
46158;SDS011;31888;44.512;26.104;2022-11-15T05:48:35;69.05;;;27.80;;
46158;SDS011;31888;44.512;26.104;2022-11-15T05:51:03;65.43;;;26.95;;
46158;SDS011;31888;44.512;26.104;2022-11-15T05:53:26;64.95;;;25.98;;
46158;SDS011;31888;44.512;26.104;2022-11-15T05:55:49;72.10;;;26.67;;
46158;SDS011;31888;44.512;26.104;2022-11-15T05:58:12;67.07;;;28.02;;
46158;SDS011;31888;44.512;26.104;2022-11-15T06:00:35;66.40;;;26.70;;
46158;SDS011;31888;44.512;26.104;2022-11-15T06:02:58;62.45;;;26.50;;
46158;SDS011;31888;44.512;26.104;2022-11-15T06:05:21;65.53;;;27.02;;
46158;SDS011;31888;44.512;26.104;2022-11-15T06:07:45;73.43;;;27.40;;
46158;SDS011;31888;44.512;26.104;2022-11-15T06:10:08;68.38;;;28.27;;
46158;SDS011;31888;44.512;26.104;2022-11-15T06:12:31;68.00;;;27.38;;
46158;SDS011;31888;44.512;26.104;2022-11-15T06:14:53;73.40;;;27.65;;
46158;SDS011;31888;44.512;26.104;2022-11-15T06:17:16;77.60;;;31.98;;
46158;SDS011;31888;44.512;26.104;2022-11-15T06:19:39;81.95;;;34.45;;
46158;SDS011;31888;44.512;26.104;2022-11-15T06:22:02;82.68;;;33.97;;
46158;SDS011;31888;44.512;26.104;2022-11-15T06:24:26;84.10;;;34.97;;
46158;SDS011;31888;44.512;26.104;2022-11-15T06:26:48;76.47;;;30.05;;
46158;SDS011;31888;44.512;26.104;2022-11-15T06:29:11;72.57;;;32.03;;
46158;SDS011;31888;44.512;26.104;2022-11-15T06:31:34;62.55;;;26.33;;
46158;SDS011;31888;44.512;26.104;2022-11-15T06:33:56;62.25;;;27.23;;
46158;SDS011;31888;44.512;26.104;2022-11-15T06:36:19;63.17;;;25.35;;
46158;SDS011;31888;44.512;26.104;2022-11-15T06:38:42;59.97;;;25.73;;
46158;SDS011;31888;44.512;26.104;2022-11-15T06:41:08;72.07;;;26.83;;
46158;SDS011;31888;44.512;26.104;2022-11-15T06:43:31;60.42;;;25.10;;
46158;SDS011;31888;44.512;26.104;2022-11-15T06:45:55;61.88;;;25.13;;
46158;SDS011;31888;44.512;26.104;2022-11-15T06:48:19;58.10;;;25.73;;
46158;SDS011;31888;44.512;26.104;2022-11-15T06:50:42;62.33;;;25.80;;
46158;SDS011;31888;44.512;26.104;2022-11-15T06:53:05;60.45;;;25.65;;
46158;SDS011;31888;44.512;26.104;2022-11-15T06:55:28;61.60;;;24.10;;
46158;SDS011;31888;44.512;26.104;2022-11-15T06:57:52;66.57;;;26.50;;
46158;SDS011;31888;44.512;26.104;2022-11-15T07:00:15;66.68;;;25.48;;
46158;SDS011;31888;44.512;26.104;2022-11-15T07:02:40;57.38;;;24.75;;
46158;SDS011;31888;44.512;26.104;2022-11-15T07:05:02;56.75;;;25.38;;
46158;SDS011;31888;44.512;26.104;2022-11-15T07:07:25;56.53;;;22.77;;
46158;SDS011;31888;44.512;26.104;2022-11-15T07:09:48;61.03;;;24.98;;
46158;SDS011;31888;44.512;26.104;2022-11-15T07:12:11;61.83;;;26.33;;
46158;SDS011;31888;44.512;26.104;2022-11-15T07:14:36;61.60;;;24.60;;
46158;SDS011;31888;44.512;26.104;2022-11-15T07:16:58;58.28;;;24.33;;
46158;SDS011;31888;44.512;26.104;2022-11-15T07:19:21;58.47;;;24.60;;
46158;SDS011;31888;44.512;26.104;2022-11-15T07:21:44;58.47;;;25.48;;
46158;SDS011;31888;44.512;26.104;2022-11-15T07:24:07;59.83;;;23.15;;
46158;SDS011;31888;44.512;26.104;2022-11-15T07:26:30;62.83;;;24.17;;
46158;SDS011;31888;44.512;26.104;2022-11-15T07:28:53;62.70;;;22.90;;
46158;SDS011;31888;44.512;26.104;2022-11-15T07:31:17;56.28;;;23.58;;
46158;SDS011;31888;44.512;26.104;2022-11-15T07:33:49;65.75;;;23.60;;
46158;SDS011;31888;44.512;26.104;2022-11-15T07:37:07;64.00;;;24.83;;
46158;SDS011;31888;44.512;26.104;2022-11-15T07:40:36;66.50;;;25.02;;
46158;SDS011;31888;44.512;26.104;2022-11-15T07:43:03;61.95;;;24.42;;
46158;SDS011;31888;44.512;26.104;2022-11-15T07:45:28;61.90;;;26.25;;
46158;SDS011;31888;44.512;26.104;2022-11-15T07:47:53;58.72;;;23.90;;
46158;SDS011;31888;44.512;26.104;2022-11-15T07:50:23;58.20;;;24.35;;
46158;SDS011;31888;44.512;26.104;2022-11-15T07:53:02;64.13;;;26.60;;
46158;SDS011;31888;44.512;26.104;2022-11-15T07:55:29;64.78;;;23.67;;
46158;SDS011;31888;44.512;26.104;2022-11-15T07:58:06;60.75;;;25.65;;
46158;SDS011;31888;44.512;26.104;2022-11-15T08:01:02;69.82;;;26.27;;
46158;SDS011;31888;44.512;26.104;2022-11-15T08:04:14;66.40;;;25.48;;
46158;SDS011;31888;44.512;26.104;2022-11-15T08:07:34;55.63;;;23.92;;
46158;SDS011;31888;44.512;26.104;2022-11-15T08:10:02;60.53;;;25.23;;
46158;SDS011;31888;44.512;26.104;2022-11-15T08:12:34;70.63;;;26.75;;
46158;SDS011;31888;44.512;26.104;2022-11-15T08:15:09;67.30;;;26.67;;
46158;SDS011;31888;44.512;26.104;2022-11-15T08:17:36;76.60;;;27.60;;
46158;SDS011;31888;44.512;26.104;2022-11-15T08:20:14;66.80;;;26.42;;
46158;SDS011;31888;44.512;26.104;2022-11-15T08:26:19;68.15;;;28.27;;
46158;SDS011;31888;44.512;26.104;2022-11-15T08:32:59;67.15;;;26.08;;
46158;SDS011;31888;44.512;26.104;2022-11-15T08:48:54;73.30;;;29.00;;
46158;SDS011;31888;44.512;26.104;2022-11-15T08:53:13;72.63;;;27.48;;
46158;SDS011;31888;44.512;26.104;2022-11-15T08:56:57;71.85;;;27.83;;
46158;SDS011;31888;44.512;26.104;2022-11-15T09:12:38;68.78;;;27.60;;
46158;SDS011;31888;44.512;26.104;2022-11-15T09:21:36;69.40;;;27.10;;
46158;SDS011;31888;44.512;26.104;2022-11-15T09:24:25;72.95;;;28.17;;
46158;SDS011;31888;44.512;26.104;2022-11-15T09:26:49;68.30;;;28.27;;
46158;SDS011;31888;44.512;26.104;2022-11-15T09:29:13;71.80;;;29.05;;
46158;SDS011;31888;44.512;26.104;2022-11-15T09:31:35;67.60;;;26.80;;
46158;SDS011;31888;44.512;26.104;2022-11-15T09:33:58;69.78;;;28.13;;
46158;SDS011;31888;44.512;26.104;2022-11-15T09:36:21;76.57;;;31.00;;
46158;SDS011;31888;44.512;26.104;2022-11-15T09:38:45;70.07;;;30.35;;
46158;SDS011;31888;44.512;26.104;2022-11-15T09:41:17;67.38;;;28.33;;
46158;SDS011;31888;44.512;26.104;2022-11-15T09:43:58;73.45;;;28.30;;
46158;SDS011;31888;44.512;26.104;2022-11-15T09:46:33;70.32;;;27.80;;
46158;SDS011;31888;44.512;26.104;2022-11-15T09:49:18;70.35;;;28.33;;
46158;SDS011;31888;44.512;26.104;2022-11-15T09:51:38;78.60;;;28.08;;
46158;SDS011;31888;44.512;26.104;2022-11-15T09:53:51;68.05;;;28.73;;
46158;SDS011;31888;44.512;26.104;2022-11-15T09:56:26;65.90;;;27.08;;
46158;SDS011;31888;44.512;26.104;2022-11-15T09:58:34;66.50;;;27.65;;
46158;SDS011;31888;44.512;26.104;2022-11-15T10:00:44;72.10;;;28.90;;
46158;SDS011;31888;44.512;26.104;2022-11-15T10:03:02;68.85;;;28.38;;
46158;SDS011;31888;44.512;26.104;2022-11-15T10:05:14;71.90;;;28.98;;
46158;SDS011;31888;44.512;26.104;2022-11-15T10:07:23;67.10;;;28.80;;
46158;SDS011;31888;44.512;26.104;2022-11-15T10:13:06;68.35;;;26.77;;
46158;SDS011;31888;44.512;26.104;2022-11-15T10:15:21;63.53;;;28.33;;
46158;SDS011;31888;44.512;26.104;2022-11-15T10:17:56;64.88;;;27.67;;
46158;SDS011;31888;44.512;26.104;2022-11-15T10:21:40;68.20;;;26.17;;
46158;SDS011;31888;44.512;26.104;2022-11-15T10:32:47;67.45;;;25.90;;
46158;SDS011;31888;44.512;26.104;2022-11-15T10:40:14;59.15;;;26.33;;
46158;SDS011;31888;44.512;26.104;2022-11-15T10:43:29;59.70;;;26.27;;
46158;SDS011;31888;44.512;26.104;2022-11-15T10:46:18;68.25;;;26.92;;
46158;SDS011;31888;44.512;26.104;2022-11-15T10:51:03;67.43;;;27.27;;
46158;SDS011;31888;44.512;26.104;2022-11-15T10:54:56;74.95;;;27.65;;
46158;SDS011;31888;44.512;26.104;2022-11-15T11:10:40;66.03;;;27.13;;
46158;SDS011;31888;44.512;26.104;2022-11-15T11:13:39;66.13;;;27.20;;
46158;SDS011;31888;44.512;26.104;2022-11-15T11:16:22;60.72;;;26.15;;
46158;SDS011;31888;44.512;26.104;2022-11-15T11:18:55;67.55;;;27.15;;
46158;SDS011;31888;44.512;26.104;2022-11-15T11:21:17;68.07;;;26.67;;
46158;SDS011;31888;44.512;26.104;2022-11-15T11:23:44;64.65;;;25.73;;
46158;SDS011;31888;44.512;26.104;2022-11-15T11:26:01;68.53;;;24.88;;
46158;SDS011;31888;44.512;26.104;2022-11-15T11:28:53;66.20;;;26.80;;
46158;SDS011;31888;44.512;26.104;2022-11-15T11:31:50;69.78;;;27.25;;
46158;SDS011;31888;44.512;26.104;2022-11-15T11:37:35;65.78;;;25.52;;
46158;SDS011;31888;44.512;26.104;2022-11-15T11:44:45;60.28;;;24.48;;
46158;SDS011;31888;44.512;26.104;2022-11-15T11:51:41;58.50;;;24.23;;
46158;SDS011;31888;44.512;26.104;2022-11-15T12:00:54;69.45;;;25.25;;
46158;SDS011;31888;44.512;26.104;2022-11-15T12:04:27;65.20;;;24.25;;
46158;SDS011;31888;44.512;26.104;2022-11-15T12:09:23;64.30;;;24.95;;
46158;SDS011;31888;44.512;26.104;2022-11-15T12:21:54;67.00;;;25.65;;
46158;SDS011;31888;44.512;26.104;2022-11-15T12:29:45;61.63;;;23.58;;
46158;SDS011;31888;44.512;26.104;2022-11-15T12:34:28;62.97;;;25.33;;
46158;SDS011;31888;44.512;26.104;2022-11-15T12:58:03;62.83;;;23.42;;
46158;SDS011;31888;44.512;26.104;2022-11-15T13:19:42;70.13;;;25.52;;
46158;SDS011;31888;44.512;26.104;2022-11-15T13:22:24;73.97;;;24.65;;
46158;SDS011;31888;44.512;26.104;2022-11-15T13:24:59;67.55;;;24.77;;
46158;SDS011;31888;44.512;26.104;2022-11-15T13:28:35;67.53;;;23.95;;
46158;SDS011;31888;44.512;26.104;2022-11-15T13:58:28;63.88;;;23.88;;
46158;SDS011;31888;44.512;26.104;2022-11-15T14:03:26;56.47;;;22.88;;
46158;SDS011;31888;44.512;26.104;2022-11-15T14:50:55;63.38;;;23.15;;
46158;SDS011;31888;44.512;26.104;2022-11-15T14:54:47;62.17;;;23.08;;
46158;SDS011;31888;44.512;26.104;2022-11-15T15:00:21;66.32;;;24.08;;
46158;SDS011;31888;44.512;26.104;2022-11-15T15:02:48;70.10;;;24.50;;
46158;SDS011;31888;44.512;26.104;2022-11-15T15:06:32;66.72;;;24.42;;
46158;SDS011;31888;44.512;26.104;2022-11-15T15:13:56;67.60;;;25.80;;
46158;SDS011;31888;44.512;26.104;2022-11-15T15:28:46;62.95;;;22.80;;
46158;SDS011;31888;44.512;26.104;2022-11-15T15:30:57;62.92;;;23.98;;
46158;SDS011;31888;44.512;26.104;2022-11-15T15:38:10;65.97;;;24.13;;
46158;SDS011;31888;44.512;26.104;2022-11-15T15:40:43;69.38;;;24.88;;
46158;SDS011;31888;44.512;26.104;2022-11-15T15:42:48;64.50;;;24.85;;
46158;SDS011;31888;44.512;26.104;2022-11-15T15:44:53;69.65;;;25.58;;
46158;SDS011;31888;44.512;26.104;2022-11-15T15:46:57;70.97;;;26.17;;
46158;SDS011;31888;44.512;26.104;2022-11-15T15:49:02;62.53;;;24.80;;
46158;SDS011;31888;44.512;26.104;2022-11-15T15:51:07;67.63;;;25.05;;
46158;SDS011;31888;44.512;26.104;2022-11-15T15:53:20;69.13;;;26.70;;
46158;SDS011;31888;44.512;26.104;2022-11-15T15:55:25;63.15;;;25.38;;
46158;SDS011;31888;44.512;26.104;2022-11-15T15:57:31;68.97;;;26.20;;
46158;SDS011;31888;44.512;26.104;2022-11-15T15:59:35;66.25;;;24.08;;
46158;SDS011;31888;44.512;26.104;2022-11-15T16:01:40;64.47;;;25.85;;
46158;SDS011;31888;44.512;26.104;2022-11-15T16:03:44;68.03;;;25.35;;
46158;SDS011;31888;44.512;26.104;2022-11-15T16:05:49;64.45;;;24.80;;
46158;SDS011;31888;44.512;26.104;2022-11-15T16:07:54;68.38;;;26.67;;
46158;SDS011;31888;44.512;26.104;2022-11-15T16:09:58;63.20;;;27.27;;
46158;SDS011;31888;44.512;26.104;2022-11-15T16:12:05;72.32;;;26.70;;
46158;SDS011;31888;44.512;26.104;2022-11-15T16:14:11;79.18;;;28.23;;
46158;SDS011;31888;44.512;26.104;2022-11-15T16:16:15;69.03;;;27.00;;
46158;SDS011;31888;44.512;26.104;2022-11-15T16:18:25;68.60;;;26.27;;
46158;SDS011;31888;44.512;26.104;2022-11-15T16:20:32;61.42;;;24.48;;
46158;SDS011;31888;44.512;26.104;2022-11-15T16:22:41;66.47;;;27.15;;
46158;SDS011;31888;44.512;26.104;2022-11-15T16:24:45;75.72;;;27.70;;
46158;SDS011;31888;44.512;26.104;2022-11-15T16:26:49;67.60;;;28.10;;
46158;SDS011;31888;44.512;26.104;2022-11-15T16:28:55;73.07;;;27.50;;
46158;SDS011;31888;44.512;26.104;2022-11-15T16:31:01;69.68;;;28.33;;
46158;SDS011;31888;44.512;26.104;2022-11-15T16:33:07;76.00;;;29.35;;
46158;SDS011;31888;44.512;26.104;2022-11-15T16:35:11;82.07;;;28.50;;
46158;SDS011;31888;44.512;26.104;2022-11-15T16:37:20;78.57;;;27.83;;
46158;SDS011;31888;44.512;26.104;2022-11-15T16:41:31;70.53;;;27.38;;
46158;SDS011;31888;44.512;26.104;2022-11-15T16:43:36;80.95;;;30.73;;
46158;SDS011;31888;44.512;26.104;2022-11-15T16:45:40;78.30;;;29.95;;
46158;SDS011;31888;44.512;26.104;2022-11-15T16:47:46;73.45;;;28.48;;
46158;SDS011;31888;44.512;26.104;2022-11-15T16:49:50;80.97;;;29.58;;
46158;SDS011;31888;44.512;26.104;2022-11-15T16:51:54;77.90;;;29.83;;
46158;SDS011;31888;44.512;26.104;2022-11-15T16:53:58;72.55;;;29.10;;
46158;SDS011;31888;44.512;26.104;2022-11-15T16:56:02;77.05;;;28.98;;
46158;SDS011;31888;44.512;26.104;2022-11-15T16:58:16;80.38;;;28.83;;
46158;SDS011;31888;44.512;26.104;2022-11-15T17:00:20;74.30;;;27.55;;
46158;SDS011;31888;44.512;26.104;2022-11-15T17:02:24;73.32;;;27.92;;
46158;SDS011;31888;44.512;26.104;2022-11-15T17:04:30;83.00;;;30.50;;
46158;SDS011;31888;44.512;26.104;2022-11-15T17:06:35;72.57;;;28.25;;
46158;SDS011;31888;44.512;26.104;2022-11-15T17:08:40;77.22;;;29.95;;
46158;SDS011;31888;44.512;26.104;2022-11-15T17:10:44;77.32;;;29.83;;
46158;SDS011;31888;44.512;26.104;2022-11-15T17:12:48;82.95;;;31.42;;
46158;SDS011;31888;44.512;26.104;2022-11-15T17:14:52;83.32;;;30.17;;
46158;SDS011;31888;44.512;26.104;2022-11-15T17:16:57;81.38;;;30.55;;
46158;SDS011;31888;44.512;26.104;2022-11-15T17:19:01;77.68;;;29.08;;
46158;SDS011;31888;44.512;26.104;2022-11-15T17:21:09;75.38;;;29.58;;
46158;SDS011;31888;44.512;26.104;2022-11-15T17:23:15;73.93;;;29.70;;
46158;SDS011;31888;44.512;26.104;2022-11-15T17:25:20;81.53;;;30.65;;
46158;SDS011;31888;44.512;26.104;2022-11-15T17:27:24;88.13;;;31.20;;
46158;SDS011;31888;44.512;26.104;2022-11-15T17:29:28;83.55;;;31.35;;
46158;SDS011;31888;44.512;26.104;2022-11-15T17:31:33;82.20;;;30.70;;
46158;SDS011;31888;44.512;26.104;2022-11-15T17:33:37;83.55;;;30.23;;
46158;SDS011;31888;44.512;26.104;2022-11-15T17:35:43;77.78;;;30.50;;
46158;SDS011;31888;44.512;26.104;2022-11-15T17:37:48;81.82;;;31.20;;
46158;SDS011;31888;44.512;26.104;2022-11-15T17:39:53;92.97;;;30.00;;
46158;SDS011;31888;44.512;26.104;2022-11-15T17:41:57;83.60;;;30.45;;
46158;SDS011;31888;44.512;26.104;2022-11-15T17:44:01;86.07;;;31.85;;
46158;SDS011;31888;44.512;26.104;2022-11-15T17:46:06;82.53;;;31.05;;
46158;SDS011;31888;44.512;26.104;2022-11-15T17:48:11;81.60;;;30.52;;
46158;SDS011;31888;44.512;26.104;2022-11-15T17:50:15;92.10;;;32.17;;
46158;SDS011;31888;44.512;26.104;2022-11-15T17:52:20;84.72;;;32.28;;
46158;SDS011;31888;44.512;26.104;2022-11-15T17:54:25;82.45;;;31.00;;
46158;SDS011;31888;44.512;26.104;2022-11-15T17:56:29;87.35;;;30.98;;
46158;SDS011;31888;44.512;26.104;2022-11-15T17:58:34;79.00;;;30.48;;
46158;SDS011;31888;44.512;26.104;2022-11-15T18:00:38;85.15;;;33.25;;
46158;SDS011;31888;44.512;26.104;2022-11-15T18:02:42;80.80;;;30.52;;
46158;SDS011;31888;44.512;26.104;2022-11-15T18:04:47;85.43;;;32.10;;
46158;SDS011;31888;44.512;26.104;2022-11-15T18:06:51;86.30;;;32.92;;
46158;SDS011;31888;44.512;26.104;2022-11-15T18:08:57;89.78;;;32.38;;
46158;SDS011;31888;44.512;26.104;2022-11-15T18:11:04;89.35;;;32.90;;
46158;SDS011;31888;44.512;26.104;2022-11-15T18:13:10;91.40;;;33.15;;
46158;SDS011;31888;44.512;26.104;2022-11-15T18:15:14;82.57;;;32.80;;
46158;SDS011;31888;44.512;26.104;2022-11-15T18:17:20;89.88;;;31.48;;